Tiempo atmosférico en la estación meteorológica de Pedraza de Alba, Salamanca (897 m.)



Fecha
DESCASC
Temp. máxima en grados centígrados (hora)
DESCASC
Temp. mínima en grados centígrados (hora)
DESCASC
Temp. media en grados centígrados
DESCASC
Racha de viento máxima en m/sg (hora)
DESCASC
Velocidad máxima media en intervalos de 10 minutos(hora)
DESCASC
Precipitaciones diarias en mm
DESCASC
Precipitaciones de 00:00 a 06:00 en mm
DESCASC
Precipitaciones de 06:00 a 12:00 en mm
DESCASC
Precipitaciones de 12:00 a 18:00 en mm
DESCASC
Precipitaciones de 18:00 a 24:00 en mm
DESCASC
05-12-2019 8.1 (14:20) 0.2 (00:20) 4.2 7.78 (15:10) 5 (14:50) 0 0 0 0 0
04-12-2019 4 (17:30) -2.8 (03:50) 0.6 5 (10:50) 2.5 (14:30) 0 0 0 0 0
03-12-2019 4.6 (16:20) -2.1 (23:40) 1.3 6.39 (09:40) 3.61 (10:50) 0 0 0 0 0
02-12-2019 8.4 (15:30) 1.8 (00:00) 5.1 10.83 (16:40) 6.67 (15:50) 1.6 1.6 0 0 0
01-12-2019 9.4 (15:00) 2 (00:00) 5.7 8.33 (15:40) 4.72 (23:30) 8.8 0.6 5.4 0 2.8
30-11-2019 13.4 (14:30) 3.2 (00:00) 8.3 15.56 (14:50) 8.61 (15:00) 12 0 0 9.4 2.6
29-11-2019 13 (16:00) 10.6 (00:00) 11.8 10.83 (00:30) 6.11 (01:10) 1.6 0 1.4 0.2 0
28-11-2019 11.9 (13:50) 7.5 (02:20) 9.7 14.72 (16:50) 8.06 (16:50) 0 0 0 0 0
27-11-2019 10.9 (14:30) 6.1 (00:00) 8.5 11.39 (15:10) 6.67 (15:10) 0.4 0.4 0 0 0
26-11-2019 15 (13:30) 9 (00:00) 12 15 (19:50) 8.89 (09:20) 0.8 0 0.2 0 0.6
25-11-2019 13.4 (13:40) 9 (08:20) 11.2 13.61 (01:40) 7.5 (01:30) 0 0 0 0 0
24-11-2019 9.8 (23:30) 3.4 (00:00) 6.6 12.22 (22:00) 6.67 (22:00) 0 0 0 0 0
23-11-2019 8.5 (16:10) 4 (00:00) 6.3 13.33 (03:40) 6.67 (02:10) 0 0 0 0 0
22-11-2019 13.6 (14:00) 6 (00:00) 9.8 17.5 (13:50) 9.17 (13:50) 8.2 0.2 3 2.4 2.6
21-11-2019 9.9 (15:20) 3.1 (00:00) 6.5 9.17 (15:00) 4.72 (15:00) 0.8 0.2 0.4 0 0.2
20-11-2019 6.6 (16:00) 2.8 (23:50) 4.7 6.67 (16:30) 3.89 (16:10) 6 0.6 2.4 2.8 0.2
19-11-2019 8.3 (15:00) -1.6 (-00:0) 3.4 5 (14:50) 2.5 (12:10) 0 0 0 0 0
18-11-2019 7.6 (14:50) 0 (00:00) 3.8 6.39 (01:20) 2.78 (01:20) 0.2 0 0 0.2 0
17-11-2019 8.2 (14:10) 2.6 (00:00) 5.4 10 (13:00) 5.83 (10:00) 6.8 0 0.4 4.6 1.8
16-11-2019 7.5 (14:30) -2.1 (-00:0) 2.7 7.22 (16:20) 3.89 (15:40) 0 0 0 0 0
15-11-2019 6.3 (15:20) 0.9 (00:00) 3.6 9.17 (00:50) 4.72 (01:20) 0.2 0.2 0 0 0
14-11-2019 7 (02:00) 2 (00:00) 4.5 15.83 (15:30) 7.5 (15:30) 6 1.2 4.2 0.6 0
13-11-2019 14 (16:30) 6.8 (00:00) 10.4 10.83 (22:50) 5.83 (02:20) 4.2 3 1.2 0 0
12-11-2019 10.3 (15:10) -0.3 (00:00) 5 10 (19:10) 5 (19:10) 0.8 0 0 0 0.8
11-11-2019 11.8 (16:50) 1.5 (23:59) 6.7 6.94 (15:10) 3.61 (15:10) 0 0 0 0 0
10-11-2019 6.3 (14:40) 2.6 (00:00) 4.5 9.44 (15:30) 5 (14:30) 0.2 0 0 0.2 0
09-11-2019 7.4 (12:30) 2.1 (00:00) 4.8 8.89 (15:30) 5 (16:20) 8 0 0.8 7.2 0
08-11-2019 8.5 (14:50) 1.9 (07:20) 5.2 10.28 (01:20) 5 (15:50) 0 0 0 0 0
07-11-2019 9.5 (03:40) 2.5 (00:00) 6 10.56 (15:50) 5.56 (01:30) 3.6 2.8 0 0.6 0.2
06-11-2019 11 (13:40) 4.4 (00:00) 7.7 9.17 (23:40) 5 (23:40) 0.6 0 0 0 0.6

Gráficas

Temp. máximas Temp. mínimas Temp. medias Precipitaciones Rachas de viento máximas Velocidades máximas media en intervalos de 10 minutos

Datos horarios

Fecha y hora oficial Temperatura (ºC) Velocidad del viento (km/h) Dirección del viento Racha (km/h) Dirección de racha Precipitación (mm) Presión (hPa) Tendencia (hPa) Humedad (%)
2019-12-05 23:00:00 2.6 0 Calma 4 Norte 0 -- -- 94
2019-12-05 22:00:00 4.3 0 Calma 5 Nordeste 0 -- -- 93
2019-12-05 21:00:00 4.9 0 Calma 5 Norte 0 -- -- 94
2019-12-05 20:00:00 5.8 3 Noroeste 5 Noroeste 0 -- -- 90
2019-12-05 19:00:00 6.5 3 Norte 5 Noroeste 0 -- -- 87
2019-12-05 18:00:00 7.2 2 Nordeste 10 Este 0 -- -- 84
2019-12-05 17:00:00 7.8 7 Este 22 Nordeste 0 -- -- 78
2019-12-05 16:00:00 7.9 17 Nordeste 28 Nordeste 0 -- -- 77
2019-12-05 15:00:00 7.8 15 Nordeste 27 Nordeste 0 -- -- 79
2019-12-05 14:00:00 7.8 11 Nordeste 19 Nordeste 0 -- -- 83
2019-12-05 13:00:00 6.7 10 Nordeste 21 Nordeste 0 -- -- 87
2019-12-05 12:00:00 5.5 11 Nordeste 20 Nordeste 0 -- -- 90
2019-12-05 11:00:00 4.7 11 Nordeste 26 Nordeste 0 -- -- 91
2019-12-05 10:00:00 4.5 14 Nordeste 26 Nordeste 0 -- -- 91
2019-12-05 09:00:00 4.2 10 Nordeste 21 Este 0 -- -- 92
2019-12-05 08:00:00 3.5 4 Norte 9 Noroeste 0 -- -- 96
2019-12-05 07:00:00 3.4 0 Calma 7 Nordeste 0 -- -- 94
2019-12-05 06:00:00 3.3 4 Nordeste 6 Nordeste 0 -- -- 95
2019-12-05 05:00:00 3.1 4 Norte 7 Nordeste 0 -- -- 95
2019-12-05 04:00:00 3.2 4 Nordeste 12 Este 0 -- -- 94
2019-12-05 03:00:00 2.7 8 Este 19 Este 0 -- -- 96
2019-12-05 02:00:00 2.5 10 Nordeste 17 Nordeste 0 -- -- 100
2019-12-05 01:00:00 0.9 0 Calma 4 Nordeste 0 -- -- 100
2019-12-05 00:00:00 1.1 0 Calma 5 Noroeste 0 -- -- 98
2019-12-04 23:00:00 1.4 2 Norte 5 Norte 0 -- -- 99
2019-12-04 22:00:00 1.7 0 Calma 4 Noroeste 0 -- -- 98
2019-12-04 21:00:00 2.8 0 Calma 2 Sudeste 0 -- -- 96
2019-12-04 20:00:00 3.8 0 Calma 4 Nordeste 0 -- -- 96
2019-12-04 19:00:00 3.7 0 Calma 2 Oeste 0 -- -- 96
2019-12-04 18:00:00 4 0 Calma 9 Nordeste 0 -- -- 94
2019-12-04 17:00:00 3.9 5 Nordeste 14 Nordeste 0 -- -- 93
2019-12-04 16:00:00 3.7 7 Nordeste 14 Norte 0 -- -- 93
2019-12-04 15:00:00 3.5 9 Nordeste 15 Nordeste 0 -- -- 92
2019-12-04 14:00:00 3.3 5 Norte 14 Norte 0 -- -- 92
2019-12-04 13:00:00 2.8 7 Norte 12 Norte 0 -- -- 96
2019-12-04 12:00:00 1.8 3 Norte 8 Nordeste 0 -- -- 99
2019-12-04 11:00:00 0.4 6 Este 18 Este 0 -- -- 100
2019-12-04 10:00:00 -0.2 6 Nordeste 12 Nordeste 0 -- -- 100
2019-12-04 09:00:00 -0.6 4 Norte 9 Norte 0 -- -- 100
2019-12-04 08:00:00 -0.5 2 Norte 4 Noroeste 0 -- -- 100
2019-12-04 07:00:00 -0.7 0 Calma 8 Norte 0 -- -- 100
2019-12-04 06:00:00 -0.8 3 Norte 8 Norte 0 -- -- 100
2019-12-04 05:00:00 -1.1 4 Sudoeste 9 Sudoeste 0 -- -- 100
2019-12-04 04:00:00 -2.8 2 Sur 4 Sudoeste 0 -- -- 99
2019-12-04 03:00:00 -2.2 3 Sudoeste 5 Sudoeste 0 -- -- 100
2019-12-04 02:00:00 -2.1 2 Oeste 7 Sudoeste 0 -- -- 100
2019-12-04 01:00:00 -2.3 0 Calma 5 Sudeste 0 -- -- 98
2019-12-04 00:00:00 -2.1 0 Calma 4 Sudoeste 0 -- -- 98
2019-12-03 23:00:00 -1.6 0 Calma 5 Sur 0 -- -- 97
2019-12-03 22:00:00 -0.9 0 Calma 4 Sur 0 -- -- 95
2019-12-03 21:00:00 0.6 3 Sudeste 5 Norte 0 -- -- 93
2019-12-03 20:00:00 2.6 3 Noroeste 6 Norte 0 -- -- 91
2019-12-03 19:00:00 3.5 3 Nordeste 8 Nordeste 0 -- -- 88
2019-12-03 18:00:00 4.2 4 Este 11 Sudeste 0 -- -- 86
2019-12-03 17:00:00 4.5 3 Este 12 Este 0 -- -- 85
2019-12-03 16:00:00 4.5 6 Este 14 Este 0 -- -- 84
2019-12-03 15:00:00 4.2 7 Nordeste 15 Este 0 -- -- 82
2019-12-03 14:00:00 3 8 Nordeste 17 Nordeste 0 -- -- 85
2019-12-03 13:00:00 1.8 9 Nordeste 22 Nordeste 0 -- -- 90
2019-12-03 12:00:00 1 11 Este 23 Este 0 -- -- 91
2019-12-03 11:00:00 0.3 11 Nordeste 22 Nordeste 0 -- -- 94
2019-12-03 10:00:00 0.3 10 Nordeste 23 Nordeste 0 -- -- 94
2019-12-03 09:00:00 -1.2 6 Nordeste 12 Nordeste 0 -- -- 97
2019-12-03 08:00:00 -1 7 Nordeste 13 Nordeste 0 -- -- 97
2019-12-03 07:00:00 -1.7 5 Nordeste 11 Nordeste 0 -- -- 98
2019-12-03 06:00:00 -1.2 6 Nordeste 12 Nordeste 0 -- -- 97
2019-12-03 05:00:00 -0.9 8 Nordeste 15 Norte 0 -- -- 97
2019-12-03 04:00:00 -0.8 7 Nordeste 17 Nordeste 0 -- -- 97
2019-12-03 03:00:00 -0.4 8 Nordeste 15 Nordeste 0 -- -- 95
2019-12-03 02:00:00 0.7 9 Nordeste 20 Nordeste 0 -- -- 93
2019-12-03 01:00:00 0.8 10 Nordeste 18 Nordeste 0 -- -- 93
2019-12-03 00:00:00 1.8 10 Nordeste 20 Nordeste 0 -- -- 92
2019-12-02 23:00:00 2.3 10 Nordeste 23 Nordeste 0 -- -- 91
2019-12-02 22:00:00 2.7 13 Nordeste 32 Nordeste 0 -- -- 91
2019-12-02 21:00:00 3.5 15 Nordeste 33 Nordeste 0 -- -- 88
2019-12-02 20:00:00 4.6 15 Nordeste 26 Nordeste 0 -- -- 89
2019-12-02 19:00:00 5.3 15 Nordeste 25 Nordeste 0 -- -- 87
2019-12-02 18:00:00 6.5 13 Nordeste 31 Nordeste 0 -- -- 83
2019-12-02 17:00:00 7.3 17 Nordeste 39 Nordeste 0 -- -- 79
2019-12-02 16:00:00 7.8 22 Nordeste 38 Nordeste 0 -- -- 76
2019-12-02 15:00:00 7.5 18 Este 34 Nordeste 0 -- -- 72
2019-12-02 14:00:00 7.7 18 Nordeste 34 Este 0 -- -- 77
2019-12-02 13:00:00 6.6 21 Nordeste 36 Nordeste 0 -- -- 80
2019-12-02 12:00:00 5.4 14 Nordeste 30 Nordeste 0 -- -- 89
2019-12-02 11:00:00 4.5 19 Nordeste 28 Este 0 -- -- 90
2019-12-02 10:00:00 3.6 13 Nordeste 30 Este 0 -- -- 96
2019-12-02 09:00:00 3.4 17 Nordeste 31 Nordeste 0 -- -- 96
2019-12-02 08:00:00 3.4 18 Nordeste 34 Nordeste 0 -- -- 96
2019-12-02 07:00:00 3.6 16 Nordeste 32 Nordeste 0 -- -- 96
2019-12-02 06:00:00 3.7 14 Nordeste 27 Nordeste 0 -- -- 97
2019-12-02 05:00:00 3.8 15 Nordeste 31 Este 0 -- -- 98
2019-12-02 04:00:00 4.1 15 Nordeste 27 Nordeste 0 -- -- 97
2019-12-02 03:00:00 4.3 15 Nordeste 29 Nordeste 0 -- -- 98
2019-12-02 02:00:00 4.9 15 Nordeste 33 Nordeste 0.4 -- -- 97
2019-12-02 01:00:00 5.1 18 Nordeste 32 Nordeste 1.2 -- -- 97
2019-12-02 00:00:00 5.4 15 Nordeste 29 Nordeste 1.8 -- -- 98
2019-12-01 23:00:00 5.5 16 Nordeste 27 Nordeste 0.6 -- -- 98
2019-12-01 22:00:00 5.4 13 Nordeste 28 Nordeste 0 -- -- 96
2019-12-01 21:00:00 5.7 15 Nordeste 27 Nordeste 0.2 -- -- 96
2019-12-01 20:00:00 5.8 12 Nordeste 26 Nordeste 0.2 -- -- 96
2019-12-01 19:00:00 6.6 8 Nordeste 19 Nordeste 0 -- -- 90
2019-12-01 18:00:00 7.3 9 Nordeste 22 Este 0 -- -- 84
2019-12-01 17:00:00 8 14 Nordeste 24 Nordeste 0 -- -- 81
2019-12-01 16:00:00 8.1 13 Nordeste 30 Nordeste 0 -- -- 83
2019-12-01 15:00:00 9.4 4 Este 9 Este 0 -- -- 75
2019-12-01 14:00:00 8.6 0 Calma 10 Sudoeste 0 -- -- 74
2019-12-01 13:00:00 8.4 4 Sudoeste 14 Sudeste 0 -- -- 81
2019-12-01 12:00:00 6.2 8 Sur 16 Sur 0 -- -- 87
2019-12-01 11:00:00 5.8 4 Sur 13 Sudeste 0 -- -- 93
2019-12-01 10:00:00 5.8 4 Sudeste 17 Sudoeste 1.4 -- -- 96
2019-12-01 09:00:00 6 10 Sudoeste 19 Sudoeste 3.8 -- -- 97
2019-12-01 08:00:00 5.7 3 Sur 7 Sur 0.2 -- -- 94
2019-12-01 07:00:00 5.9 5 Sur 14 Sudoeste 0 -- -- 92
2019-12-01 06:00:00 5.9 3 Sur 16 Sudoeste 0.6 -- -- 93
2019-12-01 05:00:00 6 9 Sudoeste 23 Sudoeste 0 -- -- 88
2019-12-01 04:00:00 5 11 Sudoeste 21 Sudoeste 0 -- -- 85
2019-12-01 03:00:00 4.2 10 Sur 18 Sur 0 -- -- 86
2019-12-01 02:00:00 3.2 5 Sur 13 Sur 0 -- -- 91
2019-12-01 01:00:00 2.2 0 Calma 6 Sudeste 0 -- -- 97
2019-12-01 00:00:00 3.2 0 Calma 14 Sudoeste 0 -- -- 94
2019-11-30 23:00:00 4.2 7 Sudoeste 15 Sudoeste 0 -- -- 94
2019-11-30 22:00:00 5 5 Sudoeste 14 Sudoeste 0 -- -- 94
2019-11-30 21:00:00 5.8 5 Sudoeste 15 Sudoeste 0 -- -- 94
2019-11-30 20:00:00 6.8 6 Sudoeste 18 Sudoeste 0.6 -- -- 95
2019-11-30 19:00:00 7 3 Sudoeste 23 Oeste 2 -- -- 96
2019-11-30 18:00:00 7.2 15 Noroeste 41 Oeste 1.2 -- -- 93
2019-11-30 17:00:00 9.6 11 Oeste 37 Oeste 4 -- -- 96
2019-11-30 16:00:00 10.8 19 Oeste 50 Sudoeste 4.2 -- -- 92
2019-11-30 15:00:00 12.4 31 Sudoeste 56 Sudoeste 0 -- -- 84
2019-11-30 14:00:00 12.8 26 Sudoeste 53 Sudoeste 0 -- -- 84
2019-11-30 13:00:00 12.9 22 Sudoeste 44 Sudoeste 0 -- -- 82
2019-11-30 12:00:00 12.2 23 Sudoeste 42 Sudoeste 0 -- -- 84
2019-11-30 11:00:00 11.6 20 Sudoeste 39 Sudoeste 0 -- -- 87
2019-11-30 10:00:00 10.9 15 Sudoeste 33 Sudoeste 0 -- -- 89
2019-11-30 09:00:00 10.5 11 Sudoeste 31 Sudoeste 0 -- -- 89
2019-11-30 08:00:00 10.6 17 Sudoeste 42 Sudoeste 0 -- -- 92
2019-11-30 07:00:00 10.5 17 Sudoeste 30 Sudoeste 0 -- -- 93
2019-11-30 06:00:00 10.3 12 Sudoeste 25 Sudoeste 0 -- -- 94
2019-11-30 05:00:00 10.8 13 Sudoeste 29 Sudoeste 0 -- -- 94
2019-11-30 04:00:00 11.2 10 Sudoeste 20 Sudoeste 0 -- -- 95
2019-11-30 03:00:00 11.4 12 Sudoeste 29 Sudoeste 0 -- -- 96
2019-11-30 02:00:00 11 6 Sudoeste 17 Sur 0 -- -- 94
2019-11-30 01:00:00 11.3 10 Sudoeste 30 Sudoeste 0 -- -- 93
2019-11-30 00:00:00 11.5 15 Sudoeste 29 Oeste 0 -- -- 95
2019-11-29 23:00:00 11.6 15 Sudoeste 27 Sudoeste 0 -- -- 95
2019-11-29 22:00:00 11.7 10 Sudoeste 26 Sudoeste 0 -- -- 95
2019-11-29 21:00:00 11.9 13 Sudoeste 27 Sudoeste 0 -- -- 94
2019-11-29 20:00:00 11.8 5 Sudoeste 17 Sur 0 -- -- 93
2019-11-29 19:00:00 11.9 9 Sudoeste 17 Sudoeste 0 -- -- 92
2019-11-29 18:00:00 12.2 6 Sudoeste 24 Sudoeste 0 -- -- 89
2019-11-29 17:00:00 12.6 14 Sudoeste 27 Oeste 0.2 -- -- 86
2019-11-29 16:00:00 13 12 Sudoeste 26 Sudoeste 0 -- -- 88
2019-11-29 15:00:00 12.7 15 Sudoeste 24 Sur 0 -- -- 89
2019-11-29 14:00:00 12.3 12 Sudoeste 23 Sudoeste 0 -- -- 93
2019-11-29 13:00:00 12.1 12 Sudoeste 24 Sudoeste 0 -- -- 93
2019-11-29 12:00:00 11.9 13 Sudoeste 28 Sudoeste 0.2 -- -- 94
2019-11-29 11:00:00 11.6 14 Sudoeste 29 Sudoeste 0 -- -- 95
2019-11-29 10:00:00 11.3 12 Sudoeste 28 Sudoeste 0.6 -- -- 96
2019-11-29 09:00:00 11.1 14 Sudoeste 26 Sudoeste 0.2 -- -- 96
2019-11-29 08:00:00 11.1 15 Sudoeste 32 Sudoeste 0.4 -- -- 95
2019-11-29 07:00:00 11.3 12 Sudoeste 26 Sudoeste 0 -- -- 93
2019-11-29 06:00:00 10.9 12 Sudoeste 26 Sudoeste 0 -- -- 96
2019-11-29 05:00:00 10.8 14 Sudoeste 26 Sudoeste 0 -- -- 96
2019-11-29 04:00:00 10.7 14 Sudoeste 34 Sudoeste 0 -- -- 96
2019-11-29 03:00:00 10.7 20 Sudoeste 35 Sudoeste 0 -- -- 95
2019-11-29 02:00:00 10.8 19 Sudoeste 39 Sudoeste 0 -- -- 94
2019-11-29 01:00:00 10.8 18 Sudoeste 39 Sudoeste 0 -- -- 94
2019-11-29 00:00:00 10.9 21 Sudoeste 40 Sudoeste 0 -- -- 93
2019-11-28 23:00:00 11 20 Sudoeste 41 Sudoeste 0 -- -- 90
2019-11-28 22:00:00 11 22 Sudoeste 49 Sudoeste 0 -- -- 86
2019-11-28 21:00:00 10.8 20 Sudoeste 42 Sudoeste 0 -- -- 85
2019-11-28 20:00:00 10.2 20 Sudoeste 40 Sudoeste 0 -- -- 88
2019-11-28 19:00:00 10.1 21 Sudoeste 43 Sudoeste 0 -- -- 89
2019-11-28 18:00:00 10.1 18 Sudoeste 44 Sudoeste 0 -- -- 87
2019-11-28 17:00:00 10.2 22 Sudoeste 53 Sudoeste 0 -- -- 84
2019-11-28 16:00:00 10.7 25 Sudoeste 45 Sudoeste 0 -- -- 88
2019-11-28 15:00:00 10.6 15 Sudoeste 39 Sudoeste 0 -- -- 89
2019-11-28 14:00:00 11.5 24 Sudoeste 44 Sudoeste 0 -- -- 78
2019-11-28 13:00:00 10.4 18 Sudoeste 38 Sudoeste 0 -- -- 86
2019-11-28 12:00:00 9.8 15 Sudoeste 44 Sudoeste 0 -- -- 93
2019-11-28 11:00:00 9.9 25 Sudoeste 46 Sudoeste 0 -- -- 88
2019-11-28 10:00:00 9.3 17 Sudoeste 35 Sudoeste 0 -- -- 90
2019-11-28 09:00:00 9.1 19 Sudoeste 39 Sudoeste 0 -- -- 88
2019-11-28 08:00:00 8.4 17 Sudoeste 35 Sudoeste 0 -- -- 88
2019-11-28 07:00:00 7.9 14 Sudoeste 42 Sudoeste 0 -- -- 93
2019-11-28 06:00:00 8.2 19 Sudoeste 37 Sudoeste 0 -- -- 93
2019-11-28 05:00:00 8.3 17 Sudoeste 33 Sudoeste 0 -- -- 92
2019-11-28 04:00:00 7.8 17 Sudoeste 40 Sudoeste 0 -- -- 92
2019-11-28 03:00:00 7.8 18 Sudoeste 36 Sudoeste 0 -- -- 91
2019-11-28 02:00:00 7.8 12 Sudoeste 31 Sudoeste 0 -- -- 89
2019-11-28 01:00:00 8.1 14 Sudoeste 27 Sudoeste 0 -- -- 89
2019-11-28 00:00:00 8.6 15 Sudoeste 32 Sudoeste 0 -- -- 86
2019-11-27 23:00:00 8.5 19 Sudoeste 36 Sudoeste 0 -- -- 86
2019-11-27 22:00:00 8.6 18 Sudoeste 32 Sudoeste 0 -- -- 88
2019-11-27 21:00:00 8.4 15 Sudoeste 32 Sudoeste 0 -- -- 89
2019-11-27 20:00:00 8.7 14 Sudoeste 33 Sudoeste 0 -- -- 89
2019-11-27 19:00:00 8.9 19 Sudoeste 34 Sudoeste 0 -- -- 87
2019-11-27 18:00:00 9.3 16 Sudoeste 31 Sudoeste 0 -- -- 83
2019-11-27 17:00:00 9.8 15 Sudoeste 35 Sudoeste 0 -- -- 79
2019-11-27 16:00:00 10.1 20 Sudoeste 41 Sudoeste 0 -- -- 78
2019-11-27 15:00:00 10.6 20 Sudoeste 39 Sudoeste 0 -- -- 74
2019-11-27 14:00:00 10.7 21 Sudoeste 38 Sudoeste 0 -- -- 74
2019-11-27 06:00:00 -- -- -- -- -- -- -- -- --
2019-11-27 05:00:00 -- -- -- -- -- -- -- -- --
2019-11-27 04:00:00 7.1 12 Sudoeste 22 Sudoeste 0 -- -- 83
2019-11-27 03:00:00 8.1 8 Oeste 30 Oeste 0 -- -- 83
2019-11-27 02:00:00 9.4 14 Sudoeste 26 Oeste 0 -- -- 92
2019-11-27 01:00:00 9.6 6 Oeste 31 Oeste 0.4 -- -- 94
2019-11-27 00:00:00 10.2 13 Sudoeste 31 Sudoeste 0.4 -- -- 94
2019-11-26 23:00:00 10.6 19 Sudoeste 40 Sudoeste 0.2 -- -- 93
2019-11-26 22:00:00 11.1 24 Sudoeste 51 Sudoeste 0 -- -- 87
2019-11-26 21:00:00 11.5 23 Sudoeste 47 Sur 0 -- -- 82
2019-11-26 20:00:00 11.9 23 Sudoeste 54 Sudoeste 0 -- -- 84
2019-11-26 19:00:00 12.5 22 Sudoeste 50 Sudoeste 0 -- -- 85
2019-11-26 18:00:00 13.1 29 Sudoeste 53 Sudoeste 0 -- -- 86
2019-11-26 17:00:00 14.1 24 Sudoeste 47 Sudoeste 0 -- -- 77
2019-11-26 16:00:00 14.3 26 Sudoeste 43 Sudoeste 0 -- -- 74
2019-11-26 15:00:00 13.7 19 Sudoeste 51 Sudoeste 0 -- -- 79
2019-11-26 14:00:00 14.7 22 Sudoeste 48 Sudoeste 0 -- -- 73
2019-11-26 13:00:00 14.3 22 Sudoeste 37 Sudoeste 0 -- -- 76
2019-11-26 12:00:00 13.4 27 Sudoeste 53 Sudoeste 0 -- -- 77
2019-11-26 11:00:00 13 18 Sudoeste 36 Sudoeste 0.2 -- -- 83
2019-11-26 10:00:00 11.4 21 Sudoeste 54 Sudoeste 0 -- -- 93
2019-11-26 09:00:00 12.1 23 Sudoeste 45 Sudoeste 0 -- -- 89
2019-11-26 08:00:00 10 9 Sudoeste 21 Sudoeste 0 -- -- 95
2019-11-26 07:00:00 9.4 9 Sudoeste 18 Sudoeste 0 -- -- 95
2019-11-26 06:00:00 9.6 9 Sudoeste 20 Sudoeste 0 -- -- 91
2019-11-26 05:00:00 9.6 7 Sudoeste 22 Sudoeste 0 -- -- 90
2019-11-26 04:00:00 9.5 14 Sudoeste 30 Sudoeste 0 -- -- 91
2019-11-26 03:00:00 9.6 14 Sudoeste 27 Sudoeste 0 -- -- 90
2019-11-26 02:00:00 9 8 Sudoeste 20 Sudoeste 0 -- -- 91
2019-11-26 01:00:00 9.4 8 Sudoeste 26 Sudoeste 0 -- -- 93
2019-11-26 00:00:00 9.2 5 Sudoeste 16 Sudoeste 0 -- -- 95
2019-11-25 23:00:00 9.3 3 Sudoeste 11 Sudoeste 0 -- -- 94
2019-11-25 22:00:00 9.6 5 Sudoeste 13 Oeste 0 -- -- 95
2019-11-25 21:00:00 9.2 5 Sudoeste 10 Sudoeste 0 -- -- 90
2019-11-25 20:00:00 10.5 8 Sudoeste 19 Oeste 0 -- -- 87
2019-11-25 19:00:00 10.6 7 Sudoeste 14 Oeste 0 -- -- 85
2019-11-25 18:00:00 11.3 5 Oeste 25 Oeste 0 -- -- 80
2019-11-25 17:00:00 12.3 11 Oeste 25 Noroeste 0 -- -- 77
2019-11-25 16:00:00 13 13 Sudoeste 33 Oeste 0 -- -- 74
2019-11-25 15:00:00 13.3 11 Oeste 35 Sudoeste 0 -- -- 72
2019-11-25 14:00:00 13 13 Oeste 31 Oeste 0 -- -- 73
2019-11-25 13:00:00 12.3 18 Sudoeste 35 Oeste 0 -- -- 77
2019-11-25 12:00:00 12.3 14 Sudoeste 33 Sudoeste 0 -- -- 79
2019-11-25 11:00:00 12 13 Sudoeste 34 Sudoeste 0 -- -- 78
2019-11-25 10:00:00 11.3 12 Sudoeste 26 Sudoeste 0 -- -- 83
2019-11-25 09:00:00 9.3 8 Sur 24 Sudoeste 0 -- -- 89
2019-11-25 08:00:00 9.2 10 Sudoeste 28 Sudoeste 0 -- -- 87
2019-11-25 07:00:00 9.2 12 Sudoeste 27 Sudoeste 0 -- -- 94
2019-11-25 06:00:00 9.5 10 Sudoeste 30 Sudoeste 0 -- -- 93
2019-11-25 05:00:00 9.7 15 Sudoeste 34 Sudoeste 0 -- -- 92
2019-11-25 04:00:00 9.9 21 Sudoeste 34 Sudoeste 0 -- -- 93
2019-11-25 03:00:00 9.9 20 Sudoeste 46 Sudoeste 0 -- -- 94
2019-11-25 02:00:00 10 26 Sudoeste 49 Sudoeste 0 -- -- 92
2019-11-25 01:00:00 9.8 25 Sudoeste 44 Sudoeste 0 -- -- 90
2019-11-25 00:00:00 9.7 19 Sudoeste 39 Sudoeste 0 -- -- 88
2019-11-24 23:00:00 9.7 19 Sudoeste 41 Sudoeste 0 -- -- 87
2019-11-24 22:00:00 9.1 24 Sudoeste 44 Sudoeste 0 -- -- 88
2019-11-24 21:00:00 8.3 18 Sudoeste 37 Sur 0 -- -- 89
2019-11-24 20:00:00 7.9 19 Sudoeste 35 Sudoeste 0 -- -- 91
2019-11-24 19:00:00 7.8 15 Sudoeste 39 Sudoeste 0 -- -- 86
2019-11-24 18:00:00 8 16 Sudoeste 34 Sudoeste 0 -- -- 77
2019-11-24 17:00:00 8.9 17 Sudoeste 28 Sudoeste 0 -- -- 74
2019-11-24 16:00:00 9.6 13 Sudoeste 25 Sudoeste 0 -- -- 68
2019-11-24 15:00:00 9.2 12 Oeste 28 Sudoeste 0 -- -- 69
2019-11-24 14:00:00 8.6 13 Sudoeste 26 Sudoeste 0 -- -- 73
2019-11-24 13:00:00 7.8 11 Sudoeste 25 Sudoeste 0 -- -- 73
2019-11-24 12:00:00 7.4 9 Sudoeste 18 Sudoeste 0 -- -- 71
2019-11-24 11:00:00 7 10 Sudoeste 20 Sur 0 -- -- 74
2019-11-24 10:00:00 5.5 9 Sudoeste 16 Sudoeste 0 -- -- 84
2019-11-24 09:00:00 3.7 7 Sudoeste 15 Sudoeste 0 -- -- 92
2019-11-24 08:00:00 3.8 6 Sudoeste 14 Sudoeste 0 -- -- 93
2019-11-24 07:00:00 3.8 5 Sudoeste 19 Sudoeste 0 -- -- 93
2019-11-24 06:00:00 3.4 8 Sudoeste 14 Sudoeste 0 -- -- 93
2019-11-24 05:00:00 4.2 6 Sudoeste 23 Oeste 0 -- -- 89
2019-11-24 04:00:00 4.8 9 Oeste 19 Sudoeste 0 -- -- 88
2019-11-24 03:00:00 5 11 Sudoeste 24 Oeste 0 -- -- 89
2019-11-24 02:00:00 5 12 Sudoeste 21 Oeste 0 -- -- 89
2019-11-24 01:00:00 4.3 5 Sudoeste 15 Sudoeste 0 -- -- 93
2019-11-24 00:00:00 4 8 Sudoeste 18 Sudoeste 0 -- -- 91
2019-11-23 23:00:00 4.8 9 Sudoeste 19 Sudoeste 0 -- -- 86
2019-11-23 22:00:00 5.1 10 Sudoeste 21 Sudoeste 0 -- -- 86
2019-11-23 21:00:00 5.9 11 Sudoeste 23 Sudoeste 0 -- -- 81
2019-11-23 20:00:00 6.1 12 Sudoeste 21 Sudoeste 0 -- -- 79
2019-11-23 19:00:00 5.7 4 Sur 12 Sudoeste 0 -- -- 79
2019-11-23 18:00:00 7.4 8 Oeste 24 Oeste 0 -- -- 72
2019-11-23 17:00:00 7.8 11 Oeste 32 Oeste 0 -- -- 68
2019-11-23 16:00:00 8.2 9 Oeste 28 Oeste 0 -- -- 68
2019-11-23 15:00:00 8.1 16 Oeste 34 Noroeste 0 -- -- 68
2019-11-23 14:00:00 7.5 17 Noroeste 36 Oeste 0 -- -- 71
2019-11-23 13:00:00 7.2 14 Oeste 33 Oeste 0 -- -- 71
2019-11-23 12:00:00 6.5 13 Oeste 39 Oeste 0 -- -- 78
2019-11-23 11:00:00 5.6 14 Oeste 35 Oeste 0 -- -- 81
2019-11-23 10:00:00 4.9 14 Sudoeste 28 Sudoeste 0 -- -- 84
2019-11-23 09:00:00 4.4 14 Oeste 32 Oeste 0 -- -- 86
2019-11-23 08:00:00 4.2 13 Oeste 28 Sudoeste 0 -- -- 84
2019-11-23 07:00:00 4.3 16 Oeste 43 Oeste 0 -- -- 83
2019-11-23 06:00:00 4.8 17 Oeste 42 Sudoeste 0 -- -- 80
2019-11-23 05:00:00 4.9 18 Sudoeste 39 Oeste 0 -- -- 80
2019-11-23 04:00:00 5.2 18 Sudoeste 48 Sudoeste 0 -- -- 84
2019-11-23 03:00:00 5.3 21 Oeste 43 Oeste 0 -- -- 83
2019-11-23 02:00:00 5.3 20 Sudoeste 43 Oeste 0 -- -- 87
2019-11-23 01:00:00 5.7 18 Oeste 46 Oeste 0 -- -- 87
2019-11-23 00:00:00 6 14 Oeste 49 Oeste 1.2 -- -- 91
2019-11-22 23:00:00 6.2 16 Sudoeste 53 Sudoeste 1 -- -- 92
2019-11-22 22:00:00 7.2 21 Sudoeste 45 Sudoeste 0.2 -- -- 91
2019-11-22 21:00:00 7.9 20 Sudoeste 39 Sudoeste 0.2 -- -- 87
2019-11-22 20:00:00 7.4 19 Sudoeste 40 Sudoeste 0 -- -- 85
2019-11-22 19:00:00 8.8 15 Sudoeste 39 Oeste 0 -- -- 77
2019-11-22 18:00:00 9.3 17 Sudoeste 33 Sudoeste 0 -- -- 86
2019-11-22 17:00:00 9.6 12 Oeste 49 Sudoeste 2.2 -- -- 89
2019-11-22 16:00:00 11.8 23 Sudoeste 43 Sudoeste 0 -- -- 84
2019-11-22 15:00:00 12 24 Sudoeste 60 Sudoeste 0 -- -- 87
2019-11-22 14:00:00 13.6 28 Sudoeste 63 Sudoeste 0 -- -- 75
2019-11-22 13:00:00 12.1 21 Sudoeste 44 Sudoeste 0.2 -- -- 79
2019-11-22 12:00:00 10.2 17 Sur 58 Sudoeste 1.2 -- -- 85
2019-11-22 11:00:00 11.4 26 Sur 50 Sur 0 -- -- 73
2019-11-22 10:00:00 10.1 25 Sur 51 Sudoeste 0 -- -- 75
2019-11-22 09:00:00 9.1 22 Sudoeste 48 Sur 0 -- -- 77
2019-11-22 08:00:00 7.6 16 Sur 35 Sur 0 -- -- 84
2019-11-22 07:00:00 6.7 10 Sudoeste 26 Sudoeste 1.8 -- -- 91
2019-11-22 06:00:00 7 11 Sudoeste 31 Sudoeste 0.2 -- -- 87
2019-11-22 05:00:00 7.5 10 Sur 22 Sudoeste 0 -- -- 84
2019-11-22 04:00:00 7 9 Sudoeste 24 Sudoeste 0 -- -- 90
2019-11-22 03:00:00 6.7 6 Sur 19 Sudoeste 0 -- -- 90
2019-11-22 02:00:00 6.4 4 Sudoeste 21 Sudoeste 0 -- -- 90
2019-11-22 01:00:00 6.8 10 Sudoeste 24 Sudoeste 0 -- -- 89
2019-11-22 00:00:00 6 5 Sur 9 Sudoeste 0 -- -- 90
2019-11-21 23:00:00 5.7 5 Sudoeste 9 Sudoeste 0.2 -- -- 92
2019-11-21 22:00:00 4.5 2 Sur 12 Sur 0 -- -- 94
2019-11-21 21:00:00 4.5 3 Sur 6 Sudeste 0 -- -- 94
2019-11-21 20:00:00 5.6 3 Sudoeste 12 Sudoeste 0 -- -- 91
2019-11-21 19:00:00 6.7 5 Sur 18 Sudoeste 0 -- -- 88
2019-11-21 18:00:00 7.4 6 Sudoeste 17 Sudoeste 0 -- -- 86
2019-11-21 17:00:00 8.2 10 Sudoeste 19 Sudoeste 0 -- -- 80
2019-11-21 16:00:00 7.6 8 Oeste 29 Sudoeste 0 -- -- 85
2019-11-21 15:00:00 9.2 17 Sudoeste 33 Sudoeste 0 -- -- 73
2019-11-21 14:00:00 9 10 Sudoeste 27 Sudoeste 0 -- -- 76
2019-11-21 13:00:00 8.3 13 Sudoeste 27 Oeste 0 -- -- 82
2019-11-21 12:00:00 7.8 13 Sudoeste 26 Oeste 0 -- -- 88
2019-11-21 11:00:00 7.6 15 Sudoeste 30 Sudoeste 0.2 -- -- 92
2019-11-21 10:00:00 6.4 4 Sudoeste 16 Sudoeste 0 -- -- 97
2019-11-21 09:00:00 5.8 8 Sudoeste 22 Sudoeste 0 -- -- 96
2019-11-21 08:00:00 5.5 9 Sudoeste 19 Oeste 0 -- -- 97
2019-11-21 07:00:00 4.7 4 Sudoeste 10 Sudoeste 0.2 -- -- 96
2019-11-21 06:00:00 4.9 4 Sudoeste 22 Sudoeste 0.2 -- -- 96
2019-11-21 05:00:00 5 12 Sudoeste 26 Sudoeste 0 -- -- 95
2019-11-21 04:00:00 4.8 13 Sudoeste 22 Sur 0 -- -- 96
2019-11-21 03:00:00 4 7 Sudoeste 15 Sudoeste 0 -- -- 97
2019-11-21 02:00:00 3.4 5 Sur 11 Sudoeste 0 -- -- 95
2019-11-21 01:00:00 4 6 Sudoeste 18 Sur 0 -- -- 93
2019-11-21 00:00:00 3.1 7 Sudoeste 15 Sudoeste 0 -- -- 97
2019-11-20 23:00:00 3.6 6 Sudoeste 22 Sudoeste 0 -- -- 97
2019-11-20 22:00:00 4 9 Sudoeste 23 Sudoeste 0.2 -- -- 96
2019-11-20 21:00:00 4.3 8 Sudoeste 15 Sudoeste 0 -- -- 96
2019-11-20 20:00:00 4.7 3 Sudoeste 17 Sudoeste 0 -- -- 96
2019-11-20 19:00:00 4.9 6 Sudoeste 18 Sur 0 -- -- 96
2019-11-20 18:00:00 5.1 0 Calma 21 Sudoeste 0.8 -- -- 95
2019-11-20 17:00:00 5.7 13 Oeste 24 Sudoeste 1 -- -- 90
2019-11-20 16:00:00 6.6 12 Sudoeste 22 Oeste 0 -- -- 90
2019-11-20 15:00:00 6.1 10 Sudoeste 20 Sudoeste 0 -- -- 90
2019-11-20 14:00:00 5.7 8 Sudoeste 16 Sudoeste 0.6 -- -- 95
2019-11-20 13:00:00 6 6 Sudoeste 15 Sudoeste 0.4 -- -- 94
2019-11-20 12:00:00 5 10 Sudoeste 16 Sudoeste 0.8 -- -- 96
2019-11-20 11:00:00 4.6 6 Sudoeste 19 Sudoeste 0.6 -- -- 96
2019-11-20 10:00:00 4.4 5 Sudoeste 15 Sudoeste 0.2 -- -- 96
2019-11-20 09:00:00 3.9 6 Sudoeste 14 Sudoeste 0.2 -- -- 96
2019-11-20 08:00:00 3.7 7 Sudoeste 21 Sudoeste 0.6 -- -- 95
2019-11-20 07:00:00 4.2 7 Sudoeste 11 Sudoeste 0 -- -- 95
2019-11-20 06:00:00 4.2 3 Sudoeste 11 Sudoeste 0.6 -- -- 94
2019-11-20 05:00:00 4.8 6 Sudoeste 15 Sudoeste 0 -- -- 87
2019-11-20 04:00:00 4.9 8 Sudoeste 19 Sudoeste 0 -- -- 86
2019-11-20 03:00:00 4.9 9 Sudoeste 20 Sudoeste 0 -- -- 86
2019-11-20 02:00:00 4.8 5 Sudoeste 12 Sudoeste 0 -- -- 83
2019-11-20 01:00:00 4.8 4 Sur 10 Sudoeste 0 -- -- 81
2019-11-20 00:00:00 4.9 5 Sudoeste 13 Sudoeste 0 -- -- 82
2019-11-19 23:00:00 5.3 6 Sudoeste 14 Sudoeste 0 -- -- 78
2019-11-19 22:00:00 5.3 8 Sudoeste 16 Sudoeste 0 -- -- 78
2019-11-19 21:00:00 5.5 4 Sudoeste 10 Sudoeste 0 -- -- 80
2019-11-19 20:00:00 5.8 6 Sudoeste 13 Sudoeste 0 -- -- 78
2019-11-19 19:00:00 6 0 Calma 5 Sudoeste 0 -- -- 77
2019-11-19 18:00:00 6.5 5 Sudoeste 17 Oeste 0 -- -- 71
2019-11-19 17:00:00 7.3 6 Sudoeste 15 Oeste 0 -- -- 64
2019-11-19 16:00:00 8 7 Oeste 15 Oeste 0 -- -- 59
2019-11-19 15:00:00 8.3 9 Sudoeste 18 Oeste 0 -- -- 57
2019-11-19 14:00:00 7.9 9 Sudoeste 16 Sudoeste 0 -- -- 60
2019-11-19 13:00:00 7.5 8 Sudoeste 17 Sudoeste 0 -- -- 65
2019-11-19 12:00:00 6.9 6 Sudoeste 12 Oeste 0 -- -- 73
2019-11-19 11:00:00 4.3 0 Calma 3 Norte 0 -- -- 91
2019-11-19 10:00:00 1.6 0 Calma 5 Sur 0 -- -- 95
2019-11-19 09:00:00 -0.3 0 Calma 4 Sur 0 -- -- 97
2019-11-19 08:00:00 -0.8 3 Sur 5 Sur 0 -- -- 97
2019-11-19 07:00:00 -1.4 0 Calma 4 Sudoeste 0 -- -- 96
2019-11-19 06:00:00 -1.4 2 Sur 9 Sudoeste 0 -- -- 95
2019-11-19 05:00:00 -1.5 2 Sur 5 Sur 0 -- -- 96
2019-11-19 04:00:00 -1.3 0 Calma 5 Sur 0 -- -- 93
2019-11-19 03:00:00 -0.3 4 Sur 6 Sur 0 -- -- 94
2019-11-19 02:00:00 -0.1 2 Sur 8 Sudoeste 0 -- -- 92
2019-11-19 01:00:00 -0.1 2 Sur 6 Sur 0 -- -- 92
2019-11-19 00:00:00 0.8 3 Sur 8 Sur 0 -- -- 94
2019-11-18 23:00:00 0.8 4 Sur 8 Sur 0 -- -- 92
2019-11-18 22:00:00 0.9 4 Sur 8 Sur 0 -- -- 92
2019-11-18 21:00:00 0.9 2 Sur 6 Sur 0 -- -- 90
2019-11-18 20:00:00 2.1 4 Sur 9 Sur 0 -- -- 89
2019-11-18 19:00:00 2.5 3 Sudeste 5 Sur 0 -- -- 89
2019-11-18 18:00:00 5.2 0 Calma 4 Sur 0.2 -- -- 81
2019-11-18 17:00:00 6.7 0 Calma 4 Norte 0 -- -- 72
2019-11-18 16:00:00 7 2 Este 9 Nordeste 0 -- -- 71
2019-11-18 15:00:00 7.6 4 Norte 12 Norte 0 -- -- 72
2019-11-18 14:00:00 6.8 5 Norte 10 Norte 0 -- -- 77
2019-11-18 13:00:00 6.1 4 Noroeste 10 Noroeste 0 -- -- 79
2019-11-18 12:00:00 4.8 5 Nordeste 16 Norte 0 -- -- 82
2019-11-18 11:00:00 3.8 0 Calma 5 Sudoeste 0 -- -- 94
2019-11-18 10:00:00 1.6 3 Oeste 6 Sudoeste 0 -- -- 100
2019-11-18 09:00:00 1.2 3 Sudoeste 8 Sudoeste 0 -- -- 100
2019-11-18 08:00:00 1.2 0 Calma 7 Oeste 0 -- -- 100
2019-11-18 07:00:00 0.2 3 Sudoeste 7 Oeste 0 -- -- 99
2019-11-18 06:00:00 0.2 2 Oeste 5 Oeste 0 -- -- 98
2019-11-18 05:00:00 0.5 2 Sur 5 Sur 0 -- -- 98
2019-11-18 04:00:00 2.3 0 Calma 13 Noroeste 0 -- -- 95
2019-11-18 03:00:00 3 5 Noroeste 12 Noroeste 0 -- -- 96
2019-11-18 02:00:00 2.9 5 Noroeste 23 Noroeste 0 -- -- 94
2019-11-18 01:00:00 3.3 8 Oeste 19 Noroeste 0 -- -- 92
2019-11-18 00:00:00 2.8 8 Sudoeste 13 Sudoeste 0 -- -- 93
2019-11-17 23:00:00 3.1 5 Sudoeste 11 Noroeste 0 -- -- 90
2019-11-17 22:00:00 4 5 Oeste 17 Oeste 0 -- -- 91
2019-11-17 21:00:00 4.7 5 Sudoeste 25 Noroeste 0 -- -- 89
2019-11-17 20:00:00 6 11 Oeste 24 Noroeste 0 -- -- 87
2019-11-17 19:00:00 6.6 10 Oeste 24 Sudoeste 1.8 -- -- 95
2019-11-17 18:00:00 6.7 11 Sudoeste 21 Sudoeste 1 -- -- 96
2019-11-17 17:00:00 7.4 10 Sudoeste 32 Oeste 2 -- -- 96
2019-11-17 16:00:00 7.6 14 Sudoeste 25 Sudoeste 1.6 -- -- 96
2019-11-17 15:00:00 8.1 15 Sudoeste 32 Sudoeste 0 -- -- 92
2019-11-17 14:00:00 8 14 Sudoeste 33 Sudoeste 0 -- -- 95
2019-11-17 13:00:00 7.9 18 Sudoeste 36 Sudoeste 0 -- -- 91
2019-11-17 12:00:00 6.9 17 Sudoeste 32 Sudoeste 0.2 -- -- 92
2019-11-17 11:00:00 5.8 16 Sudoeste 33 Sudoeste 0.2 -- -- 94
2019-11-17 10:00:00 5.5 21 Sudoeste 32 Sudoeste 0 -- -- 89
2019-11-17 09:00:00 4.8 12 Sudoeste 25 Sudoeste 0 -- -- 88
2019-11-17 08:00:00 4 8 Sudoeste 15 Sudoeste 0 -- -- 88
2019-11-17 07:00:00 4 8 Sudoeste 18 Sudoeste 0 -- -- 83
2019-11-17 06:00:00 3.9 8 Sur 17 Sudoeste 0 -- -- 82
2019-11-17 05:00:00 3.7 8 Sur 16 Sur 0 -- -- 81
2019-11-17 04:00:00 3.5 6 Sudoeste 16 Sur 0 -- -- 83
2019-11-17 03:00:00 3.4 8 Sudoeste 22 Sudoeste 0 -- -- 81
2019-11-17 02:00:00 2.9 9 Sudoeste 21 Sudoeste 0 -- -- 85
2019-11-17 01:00:00 2.8 10 Sudoeste 16 Sudoeste 0 -- -- 83
2019-11-17 00:00:00 2.8 8 Sudoeste 17 Sudoeste 0 -- -- 83
2019-11-16 23:00:00 2.3 6 Sudoeste 15 Sudoeste 0 -- -- 84
2019-11-16 22:00:00 2.6 6 Sudoeste 13 Sur 0 -- -- 82
2019-11-16 21:00:00 2.4 4 Sudoeste 9 Sudoeste 0 -- -- 82
2019-11-16 20:00:00 2.1 4 Sudoeste 12 Sudoeste 0 -- -- 84
2019-11-16 19:00:00 3.1 5 Oeste 12 Oeste 0 -- -- 78
2019-11-16 18:00:00 4.6 6 Sudoeste 25 Oeste 0 -- -- 76
2019-11-16 17:00:00 5.7 8 Oeste 26 Noroeste 0 -- -- 70
2019-11-16 16:00:00 6.8 12 Noroeste 22 Noroeste 0 -- -- 68
2019-11-16 15:00:00 7.2 10 Oeste 21 Oeste 0 -- -- 62
2019-11-16 14:00:00 6.3 11 Oeste 23 Noroeste 0 -- -- 63
2019-11-16 13:00:00 5.9 8 Sudoeste 21 Sudoeste 0 -- -- 66
2019-11-16 12:00:00 4.8 9 Oeste 20 Sudoeste 0 -- -- 75
2019-11-16 11:00:00 2.9 8 Oeste 19 Sudoeste 0 -- -- 85
2019-11-16 10:00:00 1.5 9 Oeste 16 Sudoeste 0 -- -- 90
2019-11-16 09:00:00 -1.2 4 Sudoeste 11 Oeste 0 -- -- 98
2019-11-16 08:00:00 -2.1 2 Sudoeste 6 Oeste 0 -- -- 96
2019-11-16 07:00:00 -1.6 0 Calma 5 Sur 0 -- -- 96
2019-11-16 06:00:00 -1.1 2 Sur 5 Sur 0 -- -- 98
2019-11-16 05:00:00 -0.5 2 Sur 9 Sudoeste 0 -- -- 96
2019-11-16 04:00:00 -0.4 3 Sudoeste 9 Sudoeste 0 -- -- 96
2019-11-16 03:00:00 -0.4 6 Sudoeste 10 Sudoeste 0 -- -- 97
2019-11-16 02:00:00 0.4 3 Sudoeste 6 Sudoeste 0 -- -- 93
2019-11-16 01:00:00 1.3 2 Sudoeste 10 Oeste 0 -- -- 90
2019-11-16 00:00:00 1.8 4 Sudoeste 8 Sudoeste 0 -- -- 90
2019-11-15 23:00:00 2 4 Sudoeste 14 Oeste 0 -- -- 88
2019-11-15 22:00:00 2 4 Sudoeste 11 Sudoeste 0 -- -- 87
2019-11-15 21:00:00 2.2 5 Oeste 15 Oeste 0 -- -- 85
2019-11-15 20:00:00 2.9 8 Oeste 21 Oeste 0 -- -- 80
2019-11-15 19:00:00 3.2 6 Sudoeste 15 Noroeste 0 -- -- 79
2019-11-15 18:00:00 4.2 9 Oeste 26 Oeste 0 -- -- 73
2019-11-15 17:00:00 5.2 10 Oeste 24 Noroeste 0 -- -- 65
2019-11-15 16:00:00 5.3 10 Noroeste 27 Sudoeste 0 -- -- 68
2019-11-15 15:00:00 6.1 15 Oeste 27 Oeste 0 -- -- 64
2019-11-15 14:00:00 5.7 11 Oeste 23 Noroeste 0 -- -- 71
2019-11-15 13:00:00 5 10 Oeste 24 Oeste 0 -- -- 78
2019-11-15 12:00:00 3.8 11 Oeste 22 Oeste 0 -- -- 82
2019-11-15 11:00:00 3.3 9 Oeste 21 Oeste 0 -- -- 83
2019-11-15 10:00:00 1.7 8 Oeste 14 Sudoeste 0 -- -- 90
2019-11-15 09:00:00 1.3 6 Oeste 15 Oeste 0 -- -- 91
2019-11-15 08:00:00 0.9 6 Oeste 18 Oeste 0 -- -- 90
2019-11-15 07:00:00 1.1 8 Oeste 24 Oeste 0 -- -- 90
2019-11-15 06:00:00 1.2 6 Oeste 24 Oeste 0 -- -- 91
2019-11-15 05:00:00 1.3 13 Oeste 26 Oeste 0 -- -- 92
2019-11-15 04:00:00 1.8 12 Oeste 27 Oeste 0.2 -- -- 89
2019-11-15 03:00:00 1.9 11 Oeste 31 Oeste 0 -- -- 89
2019-11-15 02:00:00 2.5 13 Oeste 32 Oeste 0 -- -- 84
2019-11-15 01:00:00 3 16 Oeste 33 Oeste 0 -- -- 84
2019-11-15 00:00:00 3.2 14 Oeste 33 Oeste 0 -- -- 84
2019-11-14 23:00:00 3.2 15 Oeste 40 Noroeste 0 -- -- 83
2019-11-14 22:00:00 3.5 17 Noroeste 39 Noroeste 0 -- -- 84
2019-11-14 21:00:00 4.1 20 Noroeste 42 Oeste 0 -- -- 82
2019-11-14 20:00:00 4.3 18 Oeste 41 Oeste 0 -- -- 84
2019-11-14 19:00:00 4.4 22 Noroeste 57 Noroeste 0 -- -- 83
2019-11-14 18:00:00 4.1 18 Oeste 42 Oeste 0 -- -- 87
2019-11-14 17:00:00 4.9 23 Oeste 49 Oeste 0 -- -- 84
2019-11-14 16:00:00 4.1 21 Sudoeste 57 Sudoeste 0.2 -- -- 88
2019-11-14 15:00:00 4 22 Sudoeste 39 Sudoeste 0.4 -- -- 90
2019-11-14 14:00:00 5 19 Sudoeste 45 Oeste 0 -- -- 80
2019-11-14 13:00:00 4.8 22 Sudoeste 40 Sudoeste 0 -- -- 80
2019-11-14 12:00:00 4.4 19 Sudoeste 35 Sudoeste 0 -- -- 87
2019-11-14 11:00:00 3.7 16 Sudoeste 26 Oeste 0 -- -- 87
2019-11-14 10:00:00 2.8 9 Oeste 31 Oeste 0 -- -- 91
2019-11-14 09:00:00 2.2 9 Sudoeste 22 Sudoeste 0.2 -- -- 96
2019-11-14 08:00:00 2.1 10 Oeste 30 Noroeste 1 -- -- 96
2019-11-14 07:00:00 2.6 14 Noroeste 53 Noroeste 3 -- -- 96
2019-11-14 06:00:00 6 14 Oeste 43 Sudoeste 0.4 -- -- 94
2019-11-14 05:00:00 5.8 18 Sudoeste 37 Sudoeste 0.8 -- -- 94
2019-11-14 04:00:00 6.8 18 Sudoeste 37 Sudoeste 0 -- -- 82
2019-11-14 03:00:00 6.9 19 Sudoeste 38 Sudoeste 0 -- -- 78
2019-11-14 02:00:00 7 22 Sudoeste 38 Sudoeste 0 -- -- 77
2019-11-14 01:00:00 6.6 20 Sudoeste 35 Sudoeste 0 -- -- 80
2019-11-14 00:00:00 6.8 16 Sudoeste 33 Sudoeste 0 -- -- 83
2019-11-13 23:00:00 7.7 15 Oeste 39 Oeste 0 -- -- 84
2019-11-13 22:00:00 8.7 15 Sudoeste 26 Oeste 0 -- -- 89
2019-11-13 21:00:00 9.6 13 Sudoeste 24 Sudoeste 0 -- -- 86
2019-11-13 20:00:00 8.7 6 Sur 14 Sudoeste 0 -- -- 87
2019-11-13 19:00:00 9.2 4 Sur 6 Sur 0 -- -- 82
2019-11-13 18:00:00 11.5 5 Oeste 26 Oeste 0 -- -- 72
2019-11-13 17:00:00 13.1 15 Oeste 30 Oeste 0 -- -- 65
2019-11-13 16:00:00 13.3 11 Oeste 23 Oeste 0 -- -- 66
2019-11-13 15:00:00 13.5 8 Oeste 19 Oeste 0 -- -- 70
2019-11-13 14:00:00 12.7 4 Oeste 12 Noroeste 0 -- -- 74
2019-11-13 13:00:00 11.8 3 Norte 14 Nordeste 0 -- -- 76
2019-11-13 12:00:00 10.7 5 Nordeste 22 Norte 0.2 -- -- 80
2019-11-13 11:00:00 10.1 12 Norte 30 Oeste 0.2 -- -- 90
2019-11-13 10:00:00 10.4 10 Noroeste 22 Noroeste 0 -- -- 93
2019-11-13 09:00:00 9.8 10 Oeste 21 Oeste 0 -- -- 94
2019-11-13 08:00:00 9.7 11 Oeste 30 Sudoeste 0 -- -- 94
2019-11-13 07:00:00 10.3 15 Oeste 31 Oeste 0.8 -- -- 94
2019-11-13 06:00:00 10.1 13 Sudoeste 31 Sudoeste 0.2 -- -- 97
2019-11-13 05:00:00 9.5 17 Sudoeste 38 Sudoeste 0.2 -- -- 97
2019-11-13 04:00:00 9.1 21 Sudoeste 35 Sudoeste 0.4 -- -- 97
2019-11-13 03:00:00 8.9 19 Sudoeste 37 Sudoeste 0.8 -- -- 97
2019-11-13 02:00:00 8.9 17 Sudoeste 35 Sudoeste 0.8 -- -- 97
2019-11-13 01:00:00 8.8 18 Sudoeste 37 Sudoeste 0.6 -- -- 97
2019-11-13 00:00:00 8.5 17 Sudoeste 33 Oeste 0.2 -- -- 96
2019-11-12 23:00:00 8.1 15 Sudoeste 30 Sudoeste 0.2 -- -- 96
2019-11-12 22:00:00 8.2 12 Sudoeste 23 Sudoeste 0.2 -- -- 94
2019-11-12 21:00:00 8.5 11 Sudoeste 22 Sudoeste 0.2 -- -- 92
2019-11-12 20:00:00 8.5 13 Sudoeste 36 Sudoeste 0 -- -- 89
2019-11-12 19:00:00 8.8 16 Sudoeste 28 Sur 0 -- -- 85
2019-11-12 18:00:00 8.9 12 Sudoeste 20 Sudoeste 0 -- -- 77
2019-11-12 17:00:00 9 11 Sudoeste 23 Oeste 0 -- -- 76
2019-11-12 16:00:00 9.6 9 Sudoeste 21 Sudoeste 0 -- -- 71
2019-11-12 15:00:00 9.9 10 Oeste 22 Oeste 0 -- -- 63
2019-11-12 14:00:00 9.5 12 Oeste 23 Sudoeste 0 -- -- 65
2019-11-12 13:00:00 8.7 10 Oeste 20 Oeste 0 -- -- 68
2019-11-12 12:00:00 7.5 10 Oeste 19 Oeste 0 -- -- 75
2019-11-12 11:00:00 6.3 5 Oeste 13 Oeste 0 -- -- 80
2019-11-12 10:00:00 4.5 6 Sudoeste 13 Sudoeste 0 -- -- 93
2019-11-12 09:00:00 1.4 0 Calma 5 Sudoeste 0 -- -- 100
2019-11-12 08:00:00 0.2 0 Calma 4 Sudoeste 0 -- -- 99
2019-11-12 07:00:00 -0.1 0 Calma 5 Sudeste 0 -- -- 99
2019-11-12 06:00:00 0.1 0 Calma 3 Sur 0 -- -- 98
2019-11-12 05:00:00 1 0 Calma 4 Sur 0 -- -- 99
2019-11-12 04:00:00 1.2 0 Calma 6 Sur 0 -- -- 98
2019-11-12 03:00:00 1.1 0 Calma 5 Oeste 0 -- -- 98
2019-11-12 02:00:00 0.8 2 Sur 5 Sur 0 -- -- 98
2019-11-12 01:00:00 0.9 3 Sur 5 Sudeste 0 -- -- 97
2019-11-12 00:00:00 1.5 2 Sur 6 Sudeste 0 -- -- 95
2019-11-11 23:00:00 3 3 Oeste 8 Noroeste 0 -- -- 93
2019-11-11 22:00:00 3.8 4 Sur 7 Sudeste 0 -- -- 90
2019-11-11 21:00:00 4.7 5 Sur 9 Sudeste 0 -- -- 88
2019-11-11 20:00:00 7 6 Norte 10 Norte 0 -- -- 76
2019-11-11 19:00:00 8.2 8 Norte 14 Norte 0 -- -- 77
2019-11-11 18:00:00 10.6 6 Norte 17 Noroeste 0 -- -- 80
2019-11-11 17:00:00 11.7 9 Noroeste 16 Noroeste 0 -- -- 80
2019-11-11 16:00:00 11.4 12 Noroeste 25 Noroeste 0 -- -- 85
2019-11-11 15:00:00 11.6 11 Noroeste 22 Noroeste 0 -- -- 87
2019-11-11 14:00:00 10.8 9 Noroeste 21 Noroeste 0 -- -- 93
2019-11-11 13:00:00 9.5 5 Oeste 14 Sudoeste 0 -- -- 99
2019-11-11 12:00:00 8.8 7 Sudoeste 19 Sudoeste 0 -- -- 99
2019-11-11 11:00:00 8.3 8 Sudoeste 16 Sudoeste 0 -- -- 99
2019-11-11 10:00:00 7.6 9 Sudoeste 21 Sudoeste 0 -- -- 99
2019-11-11 09:00:00 7.1 9 Sudoeste 17 Sudoeste 0 -- -- 98
2019-11-11 08:00:00 6.4 8 Sudoeste 17 Sudoeste 0 -- -- 97
2019-11-11 07:00:00 6.3 8 Sudoeste 18 Sudoeste 0 -- -- 90
2019-11-11 06:00:00 5.7 6 Sudoeste 15 Sur 0 -- -- 90
2019-11-11 05:00:00 5.4 5 Sudoeste 12 Sudoeste 0 -- -- 92
2019-11-11 04:00:00 5.3 5 Sur 11 Sudoeste 0 -- -- 92
2019-11-11 03:00:00 5.1 5 Sudoeste 11 Sudoeste 0 -- -- 93
2019-11-11 02:00:00 4.9 4 Sudoeste 11 Sudoeste 0 -- -- 94
2019-11-11 01:00:00 4.7 4 Sudoeste 13 Oeste 0 -- -- 93
2019-11-11 00:00:00 4.6 6 Oeste 15 Oeste 0 -- -- 92
2019-11-10 23:00:00 4.6 7 Oeste 19 Oeste 0 -- -- 93
2019-11-10 22:00:00 4.8 7 Oeste 17 Oeste 0 -- -- 92
2019-11-10 21:00:00 4.8 8 Sudoeste 16 Oeste 0 -- -- 91
2019-11-10 20:00:00 5 7 Oeste 22 Oeste 0 -- -- 89
2019-11-10 19:00:00 5.1 9 Oeste 24 Oeste 0 -- -- 88
2019-11-10 18:00:00 5.4 11 Oeste 25 Oeste 0 -- -- 85
2019-11-10 17:00:00 5.7 16 Oeste 31 Noroeste 0 -- -- 82
2019-11-10 16:00:00 5.9 13 Oeste 34 Oeste 0.2 -- -- 85
2019-11-10 15:00:00 6.2 18 Oeste 33 Noroeste 0 -- -- 83
2019-11-10 14:00:00 6 14 Oeste 31 Oeste 0 -- -- 79
2019-11-10 13:00:00 5.5 10 Oeste 28 Oeste 0 -- -- 82
2019-11-10 12:00:00 5.4 12 Oeste 31 Oeste 0 -- -- 82
2019-11-10 11:00:00 4.7 15 Oeste 33 Oeste 0 -- -- 86
2019-11-10 10:00:00 4 12 Oeste 27 Oeste 0 -- -- 89
2019-11-10 09:00:00 3.3 8 Oeste 22 Oeste 0 -- -- 90
2019-11-10 08:00:00 2.9 9 Oeste 18 Oeste 0 -- -- 90
2019-11-10 07:00:00 2.6 7 Sudoeste 14 Sudoeste 0 -- -- 90
2019-11-10 06:00:00 3.1 6 Oeste 18 Oeste 0 -- -- 88
2019-11-10 05:00:00 3.4 9 Oeste 18 Oeste 0 -- -- 86
2019-11-10 04:00:00 4 8 Oeste 23 Noroeste 0 -- -- 84
2019-11-10 03:00:00 4.8 12 Oeste 24 Oeste 0 -- -- 86
2019-11-10 02:00:00 5.6 13 Oeste 25 Oeste 0 -- -- 87
2019-11-10 01:00:00 6 11 Oeste 28 Oeste 0 -- -- 89
2019-11-10 00:00:00 6.2 13 Oeste 32 Oeste 0 -- -- 88
2019-11-09 23:00:00 6.4 14 Oeste 29 Sudoeste 0 -- -- 87
2019-11-09 22:00:00 6.7 10 Oeste 26 Oeste 0 -- -- 90
2019-11-09 21:00:00 7.1 12 Sudoeste 25 Sudoeste 0 -- -- 94
2019-11-09 20:00:00 7 6 Sudoeste 21 Sudoeste 0 -- -- 97
2019-11-09 19:00:00 7.2 10 Sudoeste 22 Sudoeste 0 -- -- 98
2019-11-09 18:00:00 6.8 15 Sudoeste 31 Sudoeste 0 -- -- 97
2019-11-09 17:00:00 6.6 15 Sudoeste 32 Sudoeste 0.2 -- -- 97
2019-11-09 16:00:00 6.7 18 Sudoeste 32 Sudoeste 1.4 -- -- 95
2019-11-09 15:00:00 6.9 13 Sudoeste 30 Sudoeste 2.8 -- -- 96
2019-11-09 14:00:00 6.7 14 Sudoeste 25 Sudoeste 2.6 -- -- 96
2019-11-09 13:00:00 7.2 13 Sudoeste 26 Sudoeste 0.2 -- -- 91
2019-11-09 12:00:00 6.7 14 Sudoeste 24 Sur 0 -- -- 88
2019-11-09 11:00:00 5.7 9 Sudoeste 23 Sudoeste 0.6 -- -- 91
2019-11-09 10:00:00 5.2 10 Sudoeste 19 Sudoeste 0.2 -- -- 87
2019-11-09 09:00:00 4.3 6 Sudoeste 17 Sudoeste 0 -- -- 85
2019-11-09 08:00:00 2.9 6 Sudoeste 14 Sudoeste 0 -- -- 89
2019-11-09 07:00:00 2.4 6 Sudoeste 13 Sur 0 -- -- 93
2019-11-09 06:00:00 2.3 7 Sudoeste 13 Sur 0 -- -- 94
2019-11-09 05:00:00 2.1 6 Sudoeste 15 Sudoeste 0 -- -- 94
2019-11-09 04:00:00 2.6 9 Sudoeste 16 Sudoeste 0 -- -- 93
2019-11-09 03:00:00 2.9 8 Sudoeste 16 Sudoeste 0 -- -- 92
2019-11-09 02:00:00 2.9 10 Sudoeste 14 Sudoeste 0 -- -- 93
2019-11-09 01:00:00 2.6 4 Sur 12 Sudoeste 0 -- -- 93
2019-11-09 00:00:00 3 7 Sudoeste 15 Sudoeste 0 -- -- 90
2019-11-08 23:00:00 3.4 10 Sudoeste 15 Sudoeste 0 -- -- 89
2019-11-08 22:00:00 3.8 9 Sudoeste 15 Sudoeste 0 -- -- 87
2019-11-08 21:00:00 3.9 6 Sudoeste 13 Oeste 0 -- -- 86
2019-11-08 20:00:00 4.9 6 Sudoeste 16 Oeste 0 -- -- 80
2019-11-08 19:00:00 5.6 7 Oeste 26 Oeste 0 -- -- 76
2019-11-08 18:00:00 6.9 12 Oeste 33 Oeste 0 -- -- 70
2019-11-08 17:00:00 7.3 10 Oeste 28 Oeste 0 -- -- 69
2019-11-08 16:00:00 7.5 16 Oeste 32 Noroeste 0 -- -- 65
2019-11-08 15:00:00 8 14 Oeste 30 Oeste 0 -- -- 67
2019-11-08 14:00:00 6.9 10 Oeste 25 Oeste 0 -- -- 71
2019-11-08 13:00:00 6.9 12 Oeste 28 Oeste 0 -- -- 73
2019-11-08 12:00:00 5.4 9 Oeste 21 Oeste 0 -- -- 80
2019-11-08 11:00:00 4.3 11 Sudoeste 22 Sudoeste 0 -- -- 84
2019-11-08 10:00:00 3.3 8 Oeste 20 Sudoeste 0 -- -- 86
2019-11-08 09:00:00 2.6 9 Oeste 26 Oeste 0 -- -- 88
2019-11-08 08:00:00 2.3 9 Oeste 24 Sudoeste 0 -- -- 88
2019-11-08 07:00:00 2 9 Oeste 20 Oeste 0 -- -- 88
2019-11-08 06:00:00 2.5 13 Oeste 36 Oeste 0 -- -- 86
2019-11-08 05:00:00 2.5 14 Oeste 28 Oeste 0 -- -- 86
2019-11-08 04:00:00 2.7 8 Oeste 30 Oeste 0 -- -- 85
2019-11-08 03:00:00 3.1 10 Sudoeste 31 Oeste 0 -- -- 84
2019-11-08 02:00:00 3.3 10 Oeste 37 Sudoeste 0 -- -- 86
2019-11-08 01:00:00 3.4 12 Sudoeste 30 Sudoeste 0 -- -- 84
2019-11-08 00:00:00 3.3 13 Sudoeste 23 Oeste 0 -- -- 87
2019-11-07 23:00:00 3.4 10 Sudoeste 27 Oeste 0 -- -- 89
2019-11-07 22:00:00 3.5 9 Sudoeste 27 Oeste 0.2 -- -- 87
2019-11-07 21:00:00 2.5 4 Sudoeste 18 Sudoeste 0 -- -- 92
2019-11-07 20:00:00 3.3 8 Oeste 35 Noroeste 0 -- -- 88
2019-11-07 19:00:00 5.5 15 Oeste 33 Oeste 0 -- -- 80
2019-11-07 18:00:00 5.8 12 Oeste 34 Noroeste 0 -- -- 79
2019-11-07 17:00:00 6.9 14 Oeste 32 Oeste 0 -- -- 80
2019-11-07 16:00:00 5.8 16 Oeste 38 Noroeste 0.6 -- -- 85
2019-11-07 15:00:00 8.3 16 Oeste 35 Oeste 0 -- -- 67
2019-11-07 14:00:00 8.8 18 Oeste 36 Sudoeste 0 -- -- 58
2019-11-07 13:00:00 8.4 17 Oeste -- -- -- -- -- 62
2019-11-07 12:00:00 7.2 16 Oeste 32 Oeste 0 -- -- 69
2019-11-07 11:00:00 5.9 10 Oeste 27 Sudoeste 0 -- -- 79
2019-11-07 10:00:00 5.9 13 Oeste 30 Oeste 0 -- -- 81
2019-11-07 09:00:00 5.5 14 Oeste 27 Oeste 0 -- -- 83
2019-11-07 08:00:00 5.5 8 Sudoeste 30 Oeste 0 -- -- 88
2019-11-07 07:00:00 6.9 7 Oeste 30 Noroeste 0 -- -- 93
2019-11-07 06:00:00 8.6 9 Oeste 19 Oeste 0 -- -- 94
2019-11-07 05:00:00 9.3 10 Oeste 24 Oeste 0.6 -- -- 95
2019-11-07 04:00:00 9.5 10 Sudoeste 26 Sudoeste 1.4 -- -- 97
2019-11-07 03:00:00 9.3 13 Sudoeste 26 Sudoeste 0.6 -- -- 97
2019-11-07 02:00:00 9.2 17 Sudoeste 33 Sudoeste 0 -- -- 96
2019-11-07 01:00:00 8.8 15 Sudoeste 32 Sudoeste 0.2 -- -- 96
2019-11-07 00:00:00 8.6 16 Sudoeste 33 Sudoeste 0.6 -- -- 95
2019-11-06 23:00:00 8.7 15 Sudoeste 31 Sudoeste 0 -- -- 91
2019-11-06 22:00:00 8.5 13 Sudoeste 23 Sudoeste 0 -- -- 88
2019-11-06 21:00:00 8.6 10 Sudoeste 21 Sudoeste 0 -- -- 88
2019-11-06 20:00:00 9.3 13 Sudoeste 25 Sudoeste 0 -- -- 82
2019-11-06 19:00:00 9.5 11 Sudoeste 21 Sudoeste 0 -- -- 78
2019-11-06 18:00:00 9.5 8 Sudoeste 20 Sudoeste 0 -- -- 76
2019-11-06 17:00:00 9.6 10 Sudoeste 23 Sudoeste 0 -- -- 73
2019-11-06 16:00:00 9.7 11 Sudoeste 22 Sudoeste 0 -- -- 73
2019-11-06 15:00:00 10.3 11 Sudoeste 21 Sudoeste 0 -- -- 70
2019-11-06 14:00:00 10.6 9 Oeste 22 Noroeste 0 -- -- 68
2019-11-06 13:00:00 9.5 7 Oeste 19 Sudoeste 0 -- -- 74
2019-11-06 12:00:00 8.7 8 Oeste 17 Oeste 0 -- -- 79
2019-11-06 11:00:00 8 8 Oeste 20 Oeste 0 -- -- 83
2019-11-06 10:00:00 7.2 11 Sudoeste 19 Sudoeste 0 -- -- 86
2019-11-06 09:00:00 6.2 7 Sudoeste 17 Oeste 0 -- -- 91
2019-11-06 08:00:00 5.9 8 Sudoeste 18 Sudoeste 0 -- -- 92
2019-11-06 07:00:00 5.7 7 Sudoeste 18 Sudoeste 0 -- -- 93
2019-11-06 06:00:00 5.7 9 Sudoeste 15 Sudoeste 0 -- -- 92
2019-11-06 05:00:00 5 7 Sudoeste 14 Sudoeste 0 -- -- 94
2019-11-06 04:00:00 5.1 7 Sudoeste 16 Sudoeste 0 -- -- 95
2019-11-06 03:00:00 4.4 5 Sudoeste 12 Sudoeste 0 -- -- 96
2019-11-06 02:00:00 4.9 5 Sudoeste 10 Sudoeste 0 -- -- 94
2019-11-06 01:00:00 5.5 3 Sudoeste 12 Oeste 0 -- -- 92
2019-11-06 00:00:00 5.8 4 Sudoeste 18 Oeste 0 -- -- 91